sensor_id;sensor_type;location;lat;lon;timestamp;temperature;humidity
21259;DHT22;10787;53.364;-1.480;2023-11-21T00:02:19;10.20;99.90
21259;DHT22;10787;53.364;-1.480;2023-11-21T00:05:04;10.20;99.90
21259;DHT22;10787;53.364;-1.480;2023-11-21T00:07:49;10.20;99.90
21259;DHT22;10787;53.364;-1.480;2023-11-21T00:10:34;10.20;99.90
21259;DHT22;10787;53.364;-1.480;2023-11-21T00:13:18;10.20;99.90
21259;DHT22;10787;53.364;-1.480;2023-11-21T00:16:02;10.20;99.90
21259;DHT22;10787;53.364;-1.480;2023-11-21T00:18:48;10.20;99.90
21259;DHT22;10787;53.364;-1.480;2023-11-21T00:21:32;10.20;99.90
21259;DHT22;10787;53.364;-1.480;2023-11-21T00:24:16;10.10;99.90
21259;DHT22;10787;53.364;-1.480;2023-11-21T00:27:00;10.10;99.90
21259;DHT22;10787;53.364;-1.480;2023-11-21T00:29:44;10.10;99.90
21259;DHT22;10787;53.364;-1.480;2023-11-21T00:32:28;10.10;99.90
21259;DHT22;10787;53.364;-1.480;2023-11-21T00:35:12;10.10;99.90
21259;DHT22;10787;53.364;-1.480;2023-11-21T00:37:56;10.10;99.90
21259;DHT22;10787;53.364;-1.480;2023-11-21T00:40:41;10.10;99.90
21259;DHT22;10787;53.364;-1.480;2023-11-21T00:43:26;10.10;99.90
21259;DHT22;10787;53.364;-1.480;2023-11-21T00:46:10;10.10;99.90
21259;DHT22;10787;53.364;-1.480;2023-11-21T00:48:55;10.10;99.90
21259;DHT22;10787;53.364;-1.480;2023-11-21T00:51:39;10.00;99.90
21259;DHT22;10787;53.364;-1.480;2023-11-21T00:54:24;10.00;99.90
21259;DHT22;10787;53.364;-1.480;2023-11-21T00:57:07;10.00;99.90
21259;DHT22;10787;53.364;-1.480;2023-11-21T00:59:52;10.00;99.90
21259;DHT22;10787;53.364;-1.480;2023-11-21T01:02:36;10.00;99.90
21259;DHT22;10787;53.364;-1.480;2023-11-21T01:05:21;10.00;99.90
21259;DHT22;10787;53.364;-1.480;2023-11-21T01:08:05;9.90;99.90
21259;DHT22;10787;53.364;-1.480;2023-11-21T01:10:49;9.90;99.90
21259;DHT22;10787;53.364;-1.480;2023-11-21T01:13:34;9.90;99.90
21259;DHT22;10787;53.364;-1.480;2023-11-21T01:16:20;9.90;99.90
21259;DHT22;10787;53.364;-1.480;2023-11-21T01:19:04;9.90;99.90
21259;DHT22;10787;53.364;-1.480;2023-11-21T01:21:48;9.90;99.90
21259;DHT22;10787;53.364;-1.480;2023-11-21T01:24:33;9.90;99.90
21259;DHT22;10787;53.364;-1.480;2023-11-21T01:27:17;9.80;99.90
21259;DHT22;10787;53.364;-1.480;2023-11-21T01:30:02;9.80;99.90
21259;DHT22;10787;53.364;-1.480;2023-11-21T01:32:47;9.80;99.90
21259;DHT22;10787;53.364;-1.480;2023-11-21T01:35:31;9.80;99.90
21259;DHT22;10787;53.364;-1.480;2023-11-21T01:38:15;9.80;99.90
21259;DHT22;10787;53.364;-1.480;2023-11-21T01:41:01;9.80;99.90
21259;DHT22;10787;53.364;-1.480;2023-11-21T01:43:46;9.70;99.90
21259;DHT22;10787;53.364;-1.480;2023-11-21T01:46:30;9.70;99.90
21259;DHT22;10787;53.364;-1.480;2023-11-21T01:49:15;9.70;99.90
21259;DHT22;10787;53.364;-1.480;2023-11-21T01:52:00;9.70;99.90
21259;DHT22;10787;53.364;-1.480;2023-11-21T01:54:45;9.70;99.90
21259;DHT22;10787;53.364;-1.480;2023-11-21T01:57:30;9.70;99.90
21259;DHT22;10787;53.364;-1.480;2023-11-21T02:00:15;9.70;99.90
21259;DHT22;10787;53.364;-1.480;2023-11-21T02:02:59;9.70;99.90
21259;DHT22;10787;53.364;-1.480;2023-11-21T02:05:44;9.70;99.90
21259;DHT22;10787;53.364;-1.480;2023-11-21T02:08:28;9.70;99.90
21259;DHT22;10787;53.364;-1.480;2023-11-21T02:11:12;9.70;99.90
21259;DHT22;10787;53.364;-1.480;2023-11-21T02:13:59;9.70;99.90
21259;DHT22;10787;53.364;-1.480;2023-11-21T02:16:43;9.70;99.90
21259;DHT22;10787;53.364;-1.480;2023-11-21T02:19:31;9.70;99.90
21259;DHT22;10787;53.364;-1.480;2023-11-21T02:22:17;9.70;99.90
21259;DHT22;10787;53.364;-1.480;2023-11-21T02:25:03;9.70;99.90
21259;DHT22;10787;53.364;-1.480;2023-11-21T02:27:48;9.70;99.90
21259;DHT22;10787;53.364;-1.480;2023-11-21T02:30:33;9.70;99.90
21259;DHT22;10787;53.364;-1.480;2023-11-21T02:33:17;9.70;99.90
21259;DHT22;10787;53.364;-1.480;2023-11-21T02:36:02;9.70;99.90
21259;DHT22;10787;53.364;-1.480;2023-11-21T02:38:46;9.70;99.90
21259;DHT22;10787;53.364;-1.480;2023-11-21T02:41:30;9.70;99.90
21259;DHT22;10787;53.364;-1.480;2023-11-21T02:44:14;9.70;99.90
21259;DHT22;10787;53.364;-1.480;2023-11-21T02:46:58;9.70;99.90
21259;DHT22;10787;53.364;-1.480;2023-11-21T02:49:44;9.70;99.90
21259;DHT22;10787;53.364;-1.480;2023-11-21T02:52:28;9.70;99.90
21259;DHT22;10787;53.364;-1.480;2023-11-21T02:55:13;9.70;99.90
21259;DHT22;10787;53.364;-1.480;2023-11-21T02:57:57;9.70;99.90
21259;DHT22;10787;53.364;-1.480;2023-11-21T03:00:41;9.70;99.90
21259;DHT22;10787;53.364;-1.480;2023-11-21T03:03:26;9.70;99.90
21259;DHT22;10787;53.364;-1.480;2023-11-21T03:06:10;9.70;99.90
21259;DHT22;10787;53.364;-1.480;2023-11-21T03:08:55;9.70;99.90
21259;DHT22;10787;53.364;-1.480;2023-11-21T03:11:39;9.70;99.90
21259;DHT22;10787;53.364;-1.480;2023-11-21T03:14:24;9.70;99.90
21259;DHT22;10787;53.364;-1.480;2023-11-21T03:17:09;9.70;99.90
21259;DHT22;10787;53.364;-1.480;2023-11-21T03:19:53;9.70;99.90
21259;DHT22;10787;53.364;-1.480;2023-11-21T03:22:38;9.70;99.90
21259;DHT22;10787;53.364;-1.480;2023-11-21T03:25:22;9.70;99.90
21259;DHT22;10787;53.364;-1.480;2023-11-21T03:28:08;9.70;99.90
21259;DHT22;10787;53.364;-1.480;2023-11-21T03:30:52;9.70;99.90
21259;DHT22;10787;53.364;-1.480;2023-11-21T03:33:36;9.70;99.90
21259;DHT22;10787;53.364;-1.480;2023-11-21T03:36:21;9.70;99.90
21259;DHT22;10787;53.364;-1.480;2023-11-21T03:39:05;9.70;99.90
21259;DHT22;10787;53.364;-1.480;2023-11-21T03:41:49;9.70;99.90
21259;DHT22;10787;53.364;-1.480;2023-11-21T03:44:33;9.70;99.90
21259;DHT22;10787;53.364;-1.480;2023-11-21T03:47:18;9.70;99.90
21259;DHT22;10787;53.364;-1.480;2023-11-21T03:50:03;9.70;99.90
21259;DHT22;10787;53.364;-1.480;2023-11-21T03:52:47;9.80;99.90
21259;DHT22;10787;53.364;-1.480;2023-11-21T03:55:32;9.80;99.90
21259;DHT22;10787;53.364;-1.480;2023-11-21T03:58:16;9.80;99.90
21259;DHT22;10787;53.364;-1.480;2023-11-21T04:01:00;9.80;99.90
21259;DHT22;10787;53.364;-1.480;2023-11-21T04:03:44;9.80;99.90
21259;DHT22;10787;53.364;-1.480;2023-11-21T04:06:28;9.80;99.90
21259;DHT22;10787;53.364;-1.480;2023-11-21T04:09:12;9.80;99.90
21259;DHT22;10787;53.364;-1.480;2023-11-21T04:11:56;9.80;99.90
21259;DHT22;10787;53.364;-1.480;2023-11-21T04:14:40;9.80;99.90
21259;DHT22;10787;53.364;-1.480;2023-11-21T04:17:24;9.80;99.90
21259;DHT22;10787;53.364;-1.480;2023-11-21T04:20:09;9.80;99.90
21259;DHT22;10787;53.364;-1.480;2023-11-21T04:22:54;9.80;99.90
21259;DHT22;10787;53.364;-1.480;2023-11-21T04:25:38;9.70;99.90
21259;DHT22;10787;53.364;-1.480;2023-11-21T04:28:22;9.70;99.90
21259;DHT22;10787;53.364;-1.480;2023-11-21T04:31:06;9.70;99.90
21259;DHT22;10787;53.364;-1.480;2023-11-21T04:33:51;9.60;99.90
21259;DHT22;10787;53.364;-1.480;2023-11-21T04:36:35;9.60;99.90
21259;DHT22;10787;53.364;-1.480;2023-11-21T04:39:19;9.50;99.90
21259;DHT22;10787;53.364;-1.480;2023-11-21T04:42:04;9.40;99.90
21259;DHT22;10787;53.364;-1.480;2023-11-21T04:44:49;9.40;99.90
21259;DHT22;10787;53.364;-1.480;2023-11-21T04:47:34;9.30;99.90
21259;DHT22;10787;53.364;-1.480;2023-11-21T04:50:18;9.30;99.90
21259;DHT22;10787;53.364;-1.480;2023-11-21T04:53:03;9.20;99.90
21259;DHT22;10787;53.364;-1.480;2023-11-21T04:55:47;9.20;99.90
21259;DHT22;10787;53.364;-1.480;2023-11-21T04:58:32;9.20;99.90
21259;DHT22;10787;53.364;-1.480;2023-11-21T05:01:16;9.20;99.90
21259;DHT22;10787;53.364;-1.480;2023-11-21T05:04:01;9.20;99.90
21259;DHT22;10787;53.364;-1.480;2023-11-21T05:06:46;9.20;99.90
21259;DHT22;10787;53.364;-1.480;2023-11-21T05:09:32;9.20;99.90
21259;DHT22;10787;53.364;-1.480;2023-11-21T05:12:16;9.20;99.90
21259;DHT22;10787;53.364;-1.480;2023-11-21T05:15:00;9.20;99.90
21259;DHT22;10787;53.364;-1.480;2023-11-21T05:17:45;9.20;99.90
21259;DHT22;10787;53.364;-1.480;2023-11-21T05:20:29;9.20;99.90
21259;DHT22;10787;53.364;-1.480;2023-11-21T05:23:14;9.20;99.90
21259;DHT22;10787;53.364;-1.480;2023-11-21T05:25:58;9.20;99.90
21259;DHT22;10787;53.364;-1.480;2023-11-21T05:28:42;9.20;99.90
21259;DHT22;10787;53.364;-1.480;2023-11-21T05:31:26;9.20;99.90
21259;DHT22;10787;53.364;-1.480;2023-11-21T05:34:10;9.20;99.90
21259;DHT22;10787;53.364;-1.480;2023-11-21T05:36:55;9.20;99.90
21259;DHT22;10787;53.364;-1.480;2023-11-21T05:39:41;9.20;99.90
21259;DHT22;10787;53.364;-1.480;2023-11-21T05:42:26;9.20;99.90
21259;DHT22;10787;53.364;-1.480;2023-11-21T05:45:11;9.20;99.90
21259;DHT22;10787;53.364;-1.480;2023-11-21T05:47:55;9.30;99.90
21259;DHT22;10787;53.364;-1.480;2023-11-21T05:50:40;9.30;99.90
21259;DHT22;10787;53.364;-1.480;2023-11-21T05:53:25;9.30;99.90
21259;DHT22;10787;53.364;-1.480;2023-11-21T05:56:09;9.30;99.90
21259;DHT22;10787;53.364;-1.480;2023-11-21T05:58:54;9.30;99.90
21259;DHT22;10787;53.364;-1.480;2023-11-21T06:01:38;9.30;99.90
21259;DHT22;10787;53.364;-1.480;2023-11-21T06:04:22;9.30;99.90
21259;DHT22;10787;53.364;-1.480;2023-11-21T06:07:08;9.30;99.90
21259;DHT22;10787;53.364;-1.480;2023-11-21T06:09:53;9.20;99.90
21259;DHT22;10787;53.364;-1.480;2023-11-21T06:12:38;9.20;99.90
21259;DHT22;10787;53.364;-1.480;2023-11-21T06:15:24;9.30;99.90
21259;DHT22;10787;53.364;-1.480;2023-11-21T06:18:08;9.40;99.90
21259;DHT22;10787;53.364;-1.480;2023-11-21T06:20:54;9.60;99.90
21259;DHT22;10787;53.364;-1.480;2023-11-21T06:23:39;9.70;99.90
21259;DHT22;10787;53.364;-1.480;2023-11-21T06:26:23;9.70;99.90
21259;DHT22;10787;53.364;-1.480;2023-11-21T06:29:08;9.70;99.90
21259;DHT22;10787;53.364;-1.480;2023-11-21T06:31:52;9.70;99.90
21259;DHT22;10787;53.364;-1.480;2023-11-21T06:34:39;9.60;99.90
21259;DHT22;10787;53.364;-1.480;2023-11-21T06:37:23;9.50;99.90
21259;DHT22;10787;53.364;-1.480;2023-11-21T06:40:07;9.50;99.90
21259;DHT22;10787;53.364;-1.480;2023-11-21T06:42:53;9.50;99.90
21259;DHT22;10787;53.364;-1.480;2023-11-21T06:45:38;9.40;99.90
21259;DHT22;10787;53.364;-1.480;2023-11-21T06:48:22;9.40;99.90
21259;DHT22;10787;53.364;-1.480;2023-11-21T06:51:07;9.40;99.90
21259;DHT22;10787;53.364;-1.480;2023-11-21T06:53:52;9.40;99.90
21259;DHT22;10787;53.364;-1.480;2023-11-21T06:56:36;9.40;99.90
21259;DHT22;10787;53.364;-1.480;2023-11-21T06:59:23;9.40;99.90
21259;DHT22;10787;53.364;-1.480;2023-11-21T07:02:08;9.40;99.90
21259;DHT22;10787;53.364;-1.480;2023-11-21T07:04:53;9.30;99.90
21259;DHT22;10787;53.364;-1.480;2023-11-21T07:07:37;9.30;99.90
21259;DHT22;10787;53.364;-1.480;2023-11-21T07:10:22;9.30;99.90
21259;DHT22;10787;53.364;-1.480;2023-11-21T07:13:07;9.30;99.90
21259;DHT22;10787;53.364;-1.480;2023-11-21T07:15:59;9.30;99.90
21259;DHT22;10787;53.364;-1.480;2023-11-21T07:18:43;9.30;99.90
21259;DHT22;10787;53.364;-1.480;2023-11-21T07:21:27;9.30;99.90
21259;DHT22;10787;53.364;-1.480;2023-11-21T07:24:11;9.20;99.90
21259;DHT22;10787;53.364;-1.480;2023-11-21T07:26:56;9.20;99.90
21259;DHT22;10787;53.364;-1.480;2023-11-21T07:29:40;9.20;99.90
21259;DHT22;10787;53.364;-1.480;2023-11-21T07:32:25;9.20;99.90
21259;DHT22;10787;53.364;-1.480;2023-11-21T07:35:09;9.20;99.90
21259;DHT22;10787;53.364;-1.480;2023-11-21T07:37:54;9.20;99.90
21259;DHT22;10787;53.364;-1.480;2023-11-21T07:40:38;9.20;99.90
21259;DHT22;10787;53.364;-1.480;2023-11-21T07:43:22;9.10;99.90
21259;DHT22;10787;53.364;-1.480;2023-11-21T07:46:07;9.10;99.90
21259;DHT22;10787;53.364;-1.480;2023-11-21T07:48:51;9.00;99.90
21259;DHT22;10787;53.364;-1.480;2023-11-21T07:51:37;9.00;99.90
21259;DHT22;10787;53.364;-1.480;2023-11-21T07:54:21;9.00;99.90
21259;DHT22;10787;53.364;-1.480;2023-11-21T07:57:05;9.00;99.90
21259;DHT22;10787;53.364;-1.480;2023-11-21T07:59:49;9.00;99.90
21259;DHT22;10787;53.364;-1.480;2023-11-21T08:02:33;9.00;99.90
21259;DHT22;10787;53.364;-1.480;2023-11-21T08:05:18;9.00;99.90
21259;DHT22;10787;53.364;-1.480;2023-11-21T08:08:03;9.00;99.90
21259;DHT22;10787;53.364;-1.480;2023-11-21T08:10:48;9.00;99.90
21259;DHT22;10787;53.364;-1.480;2023-11-21T08:13:32;9.00;99.90
21259;DHT22;10787;53.364;-1.480;2023-11-21T08:16:16;9.00;99.90
21259;DHT22;10787;53.364;-1.480;2023-11-21T08:19:01;8.90;99.90
21259;DHT22;10787;53.364;-1.480;2023-11-21T08:21:46;8.90;99.90
21259;DHT22;10787;53.364;-1.480;2023-11-21T08:24:31;8.90;99.90
21259;DHT22;10787;53.364;-1.480;2023-11-21T08:27:15;8.90;99.90
21259;DHT22;10787;53.364;-1.480;2023-11-21T08:30:02;8.90;99.90
21259;DHT22;10787;53.364;-1.480;2023-11-21T08:32:46;8.90;99.90
21259;DHT22;10787;53.364;-1.480;2023-11-21T08:35:31;9.00;99.90
21259;DHT22;10787;53.364;-1.480;2023-11-21T08:38:15;9.00;99.90
21259;DHT22;10787;53.364;-1.480;2023-11-21T08:40:59;9.00;99.90
21259;DHT22;10787;53.364;-1.480;2023-11-21T08:43:44;9.00;99.90
21259;DHT22;10787;53.364;-1.480;2023-11-21T08:46:28;9.00;99.90
21259;DHT22;10787;53.364;-1.480;2023-11-21T08:49:12;9.00;99.90
21259;DHT22;10787;53.364;-1.480;2023-11-21T08:51:58;9.00;99.90
21259;DHT22;10787;53.364;-1.480;2023-11-21T08:54:43;9.00;99.90
21259;DHT22;10787;53.364;-1.480;2023-11-21T08:57:29;8.90;99.90
21259;DHT22;10787;53.364;-1.480;2023-11-21T09:00:14;8.90;99.90
21259;DHT22;10787;53.364;-1.480;2023-11-21T09:03:01;8.90;99.90
21259;DHT22;10787;53.364;-1.480;2023-11-21T09:05:47;8.80;99.90
21259;DHT22;10787;53.364;-1.480;2023-11-21T09:08:31;8.80;99.90
21259;DHT22;10787;53.364;-1.480;2023-11-21T09:11:17;8.80;99.90
21259;DHT22;10787;53.364;-1.480;2023-11-21T09:14:01;8.80;99.90
21259;DHT22;10787;53.364;-1.480;2023-11-21T09:16:46;8.80;99.90
21259;DHT22;10787;53.364;-1.480;2023-11-21T09:19:31;8.80;99.90
21259;DHT22;10787;53.364;-1.480;2023-11-21T09:22:15;8.80;99.90
21259;DHT22;10787;53.364;-1.480;2023-11-21T09:24:59;8.90;99.90
21259;DHT22;10787;53.364;-1.480;2023-11-21T09:27:44;8.90;99.90
21259;DHT22;10787;53.364;-1.480;2023-11-21T09:30:29;8.90;99.90
21259;DHT22;10787;53.364;-1.480;2023-11-21T09:33:15;8.90;99.90
21259;DHT22;10787;53.364;-1.480;2023-11-21T09:35:59;9.00;99.90
21259;DHT22;10787;53.364;-1.480;2023-11-21T09:38:43;9.10;99.90
21259;DHT22;10787;53.364;-1.480;2023-11-21T09:41:52;9.00;99.90
21259;DHT22;10787;53.364;-1.480;2023-11-21T09:48:04;9.10;99.90
21259;DHT22;10787;53.364;-1.480;2023-11-21T09:50:50;9.10;99.90
21259;DHT22;10787;53.364;-1.480;2023-11-21T09:53:35;9.20;99.90
21259;DHT22;10787;53.364;-1.480;2023-11-21T09:56:21;9.20;99.90
21259;DHT22;10787;53.364;-1.480;2023-11-21T09:59:09;9.20;99.90
21259;DHT22;10787;53.364;-1.480;2023-11-21T10:01:57;9.30;99.90
21259;DHT22;10787;53.364;-1.480;2023-11-21T10:04:42;9.30;99.90
21259;DHT22;10787;53.364;-1.480;2023-11-21T10:07:27;9.30;99.90
21259;DHT22;10787;53.364;-1.480;2023-11-21T10:10:13;9.40;99.90
21259;DHT22;10787;53.364;-1.480;2023-11-21T10:13:05;9.40;99.90
21259;DHT22;10787;53.364;-1.480;2023-11-21T10:15:52;9.40;99.90
21259;DHT22;10787;53.364;-1.480;2023-11-21T10:18:37;9.40;99.90
21259;DHT22;10787;53.364;-1.480;2023-11-21T10:21:23;9.40;99.90
21259;DHT22;10787;53.364;-1.480;2023-11-21T10:24:08;9.50;99.90
21259;DHT22;10787;53.364;-1.480;2023-11-21T10:26:52;9.60;99.90
21259;DHT22;10787;53.364;-1.480;2023-11-21T10:29:39;9.60;99.90
21259;DHT22;10787;53.364;-1.480;2023-11-21T10:32:28;9.70;99.90
21259;DHT22;10787;53.364;-1.480;2023-11-21T10:35:12;9.70;99.90
21259;DHT22;10787;53.364;-1.480;2023-11-21T10:38:00;9.80;99.90
21259;DHT22;10787;53.364;-1.480;2023-11-21T10:40:44;9.80;99.90
21259;DHT22;10787;53.364;-1.480;2023-11-21T10:43:30;9.90;99.90
21259;DHT22;10787;53.364;-1.480;2023-11-21T10:46:14;10.10;99.90
21259;DHT22;10787;53.364;-1.480;2023-11-21T10:49:00;10.10;99.90
21259;DHT22;10787;53.364;-1.480;2023-11-21T10:51:44;10.10;99.90
21259;DHT22;10787;53.364;-1.480;2023-11-21T10:54:30;10.00;99.90
21259;DHT22;10787;53.364;-1.480;2023-11-21T10:57:18;10.00;99.90
21259;DHT22;10787;53.364;-1.480;2023-11-21T11:00:06;9.90;99.90
21259;DHT22;10787;53.364;-1.480;2023-11-21T11:02:54;9.90;99.90
21259;DHT22;10787;53.364;-1.480;2023-11-21T11:05:40;9.90;99.90
21259;DHT22;10787;53.364;-1.480;2023-11-21T11:08:30;10.00;99.90
21259;DHT22;10787;53.364;-1.480;2023-11-21T11:11:14;10.00;99.90
21259;DHT22;10787;53.364;-1.480;2023-11-21T11:14:02;10.20;99.90
21259;DHT22;10787;53.364;-1.480;2023-11-21T11:16:53;10.50;99.90
21259;DHT22;10787;53.364;-1.480;2023-11-21T11:19:38;10.60;99.90
21259;DHT22;10787;53.364;-1.480;2023-11-21T11:22:40;10.80;99.90
21259;DHT22;10787;53.364;-1.480;2023-11-21T11:25:39;10.90;99.90
21259;DHT22;10787;53.364;-1.480;2023-11-21T11:34:44;11.10;99.90
21259;DHT22;10787;53.364;-1.480;2023-11-21T11:37:30;11.00;99.90
21259;DHT22;10787;53.364;-1.480;2023-11-21T11:40:15;10.90;99.90
21259;DHT22;10787;53.364;-1.480;2023-11-21T11:43:01;10.90;99.90
21259;DHT22;10787;53.364;-1.480;2023-11-21T11:45:48;11.10;99.90
21259;DHT22;10787;53.364;-1.480;2023-11-21T11:48:39;11.10;99.90
21259;DHT22;10787;53.364;-1.480;2023-11-21T11:51:24;11.70;99.90
21259;DHT22;10787;53.364;-1.480;2023-11-21T11:54:08;12.10;99.90
21259;DHT22;10787;53.364;-1.480;2023-11-21T11:56:52;12.10;99.90
21259;DHT22;10787;53.364;-1.480;2023-11-21T12:03:15;11.30;99.90
21259;DHT22;10787;53.364;-1.480;2023-11-21T12:06:01;11.10;99.90
21259;DHT22;10787;53.364;-1.480;2023-11-21T12:08:46;11.70;99.90
21259;DHT22;10787;53.364;-1.480;2023-11-21T12:11:31;13.60;99.90
21259;DHT22;10787;53.364;-1.480;2023-11-21T12:14:16;15.40;99.90
21259;DHT22;10787;53.364;-1.480;2023-11-21T12:17:00;16.60;99.90
21259;DHT22;10787;53.364;-1.480;2023-11-21T12:19:46;17.40;99.90
21259;DHT22;10787;53.364;-1.480;2023-11-21T12:22:30;17.90;99.90
21259;DHT22;10787;53.364;-1.480;2023-11-21T12:25:18;18.00;99.90
21259;DHT22;10787;53.364;-1.480;2023-11-21T12:28:03;18.60;99.90
21259;DHT22;10787;53.364;-1.480;2023-11-21T12:30:47;19.50;99.90
21259;DHT22;10787;53.364;-1.480;2023-11-21T12:33:33;20.20;99.90
21259;DHT22;10787;53.364;-1.480;2023-11-21T12:36:17;20.60;99.90
21259;DHT22;10787;53.364;-1.480;2023-11-21T12:39:01;21.00;99.90
21259;DHT22;10787;53.364;-1.480;2023-11-21T12:41:47;21.20;99.90
21259;DHT22;10787;53.364;-1.480;2023-11-21T12:44:31;21.40;99.90
21259;DHT22;10787;53.364;-1.480;2023-11-21T12:47:17;21.60;99.90
21259;DHT22;10787;53.364;-1.480;2023-11-21T12:50:03;21.80;99.90
21259;DHT22;10787;53.364;-1.480;2023-11-21T12:53:03;20.50;99.90
21259;DHT22;10787;53.364;-1.480;2023-11-21T12:55:56;18.70;99.90
21259;DHT22;10787;53.364;-1.480;2023-11-21T12:58:45;17.00;99.90
21259;DHT22;10787;53.364;-1.480;2023-11-21T13:01:31;15.00;99.90
21259;DHT22;10787;53.364;-1.480;2023-11-21T13:04:16;13.60;99.90
21259;DHT22;10787;53.364;-1.480;2023-11-21T13:07:05;12.80;99.90
21259;DHT22;10787;53.364;-1.480;2023-11-21T13:09:58;12.10;99.90
21259;DHT22;10787;53.364;-1.480;2023-11-21T13:12:44;11.80;99.90
21259;DHT22;10787;53.364;-1.480;2023-11-21T13:15:32;11.60;99.90
21259;DHT22;10787;53.364;-1.480;2023-11-21T13:18:17;11.40;99.90
21259;DHT22;10787;53.364;-1.480;2023-11-21T13:21:03;11.20;99.90
21259;DHT22;10787;53.364;-1.480;2023-11-21T13:23:56;11.10;99.90
21259;DHT22;10787;53.364;-1.480;2023-11-21T13:26:41;11.10;99.90
21259;DHT22;10787;53.364;-1.480;2023-11-21T13:29:25;11.10;99.90
21259;DHT22;10787;53.364;-1.480;2023-11-21T13:32:10;11.30;99.90
21259;DHT22;10787;53.364;-1.480;2023-11-21T13:34:56;11.90;99.90
21259;DHT22;10787;53.364;-1.480;2023-11-21T13:37:40;13.60;99.90
21259;DHT22;10787;53.364;-1.480;2023-11-21T13:40:24;15.40;99.90
21259;DHT22;10787;53.364;-1.480;2023-11-21T13:43:16;16.60;99.90
21259;DHT22;10787;53.364;-1.480;2023-11-21T13:46:02;16.40;99.90
21259;DHT22;10787;53.364;-1.480;2023-11-21T13:48:57;15.70;99.90
21259;DHT22;10787;53.364;-1.480;2023-11-21T13:51:41;14.70;99.90
21259;DHT22;10787;53.364;-1.480;2023-11-21T13:54:28;13.90;99.90
21259;DHT22;10787;53.364;-1.480;2023-11-21T13:57:13;13.40;99.90
21259;DHT22;10787;53.364;-1.480;2023-11-21T13:59:58;12.80;99.90
21259;DHT22;10787;53.364;-1.480;2023-11-21T14:02:43;12.50;99.90
21259;DHT22;10787;53.364;-1.480;2023-11-21T14:05:29;12.50;99.90
21259;DHT22;10787;53.364;-1.480;2023-11-21T14:08:15;12.50;99.90
21259;DHT22;10787;53.364;-1.480;2023-11-21T14:11:04;13.30;99.90
21259;DHT22;10787;53.364;-1.480;2023-11-21T14:13:50;15.20;99.90
21259;DHT22;10787;53.364;-1.480;2023-11-21T14:16:34;16.50;99.90
21259;DHT22;10787;53.364;-1.480;2023-11-21T14:19:19;16.20;99.90
21259;DHT22;10787;53.364;-1.480;2023-11-21T14:22:03;15.40;99.90
21259;DHT22;10787;53.364;-1.480;2023-11-21T14:24:48;14.40;99.90
21259;DHT22;10787;53.364;-1.480;2023-11-21T14:27:34;13.50;99.90
21259;DHT22;10787;53.364;-1.480;2023-11-21T14:30:18;12.70;99.90
21259;DHT22;10787;53.364;-1.480;2023-11-21T14:33:06;12.10;99.90
21259;DHT22;10787;53.364;-1.480;2023-11-21T14:35:52;11.60;99.90
21259;DHT22;10787;53.364;-1.480;2023-11-21T14:38:37;11.20;99.90
21259;DHT22;10787;53.364;-1.480;2023-11-21T14:41:23;10.90;99.90
21259;DHT22;10787;53.364;-1.480;2023-11-21T14:44:11;10.70;99.90
21259;DHT22;10787;53.364;-1.480;2023-11-21T14:46:57;10.60;99.90
21259;DHT22;10787;53.364;-1.480;2023-11-21T14:49:44;10.50;99.90
21259;DHT22;10787;53.364;-1.480;2023-11-21T14:52:37;10.50;99.90
21259;DHT22;10787;53.364;-1.480;2023-11-21T14:55:36;10.50;99.90
21259;DHT22;10787;53.364;-1.480;2023-11-21T14:58:36;10.50;99.90
21259;DHT22;10787;53.364;-1.480;2023-11-21T15:01:23;10.50;99.90
21259;DHT22;10787;53.364;-1.480;2023-11-21T15:04:19;10.50;99.90
21259;DHT22;10787;53.364;-1.480;2023-11-21T15:07:19;10.30;99.90
21259;DHT22;10787;53.364;-1.480;2023-11-21T15:10:04;10.20;99.90
21259;DHT22;10787;53.364;-1.480;2023-11-21T15:12:52;10.10;99.90
21259;DHT22;10787;53.364;-1.480;2023-11-21T15:15:37;10.00;99.90
21259;DHT22;10787;53.364;-1.480;2023-11-21T15:18:22;9.90;99.90
21259;DHT22;10787;53.364;-1.480;2023-11-21T15:21:08;9.70;99.90
21259;DHT22;10787;53.364;-1.480;2023-11-21T15:23:55;9.60;99.90
21259;DHT22;10787;53.364;-1.480;2023-11-21T15:26:39;9.50;99.90
21259;DHT22;10787;53.364;-1.480;2023-11-21T15:29:23;9.40;99.90
21259;DHT22;10787;53.364;-1.480;2023-11-21T15:32:09;9.40;99.90
21259;DHT22;10787;53.364;-1.480;2023-11-21T15:34:54;9.30;99.90
21259;DHT22;10787;53.364;-1.480;2023-11-21T15:37:38;9.30;99.90
21259;DHT22;10787;53.364;-1.480;2023-11-21T15:40:23;9.20;99.90
21259;DHT22;10787;53.364;-1.480;2023-11-21T15:43:07;9.20;99.90
21259;DHT22;10787;53.364;-1.480;2023-11-21T15:45:52;9.20;99.90
21259;DHT22;10787;53.364;-1.480;2023-11-21T15:48:37;9.10;99.90
21259;DHT22;10787;53.364;-1.480;2023-11-21T15:51:24;9.10;99.90
21259;DHT22;10787;53.364;-1.480;2023-11-21T15:54:09;9.10;99.90
21259;DHT22;10787;53.364;-1.480;2023-11-21T15:56:54;9.00;99.90
21259;DHT22;10787;53.364;-1.480;2023-11-21T15:59:43;9.00;99.90
21259;DHT22;10787;53.364;-1.480;2023-11-21T16:02:29;9.00;99.90
21259;DHT22;10787;53.364;-1.480;2023-11-21T16:05:14;9.00;99.90
21259;DHT22;10787;53.364;-1.480;2023-11-21T16:08:00;8.90;99.90
21259;DHT22;10787;53.364;-1.480;2023-11-21T16:10:45;8.90;99.90
21259;DHT22;10787;53.364;-1.480;2023-11-21T16:13:29;8.90;99.90
21259;DHT22;10787;53.364;-1.480;2023-11-21T16:16:13;8.90;99.90
21259;DHT22;10787;53.364;-1.480;2023-11-21T16:19:00;8.80;99.90
21259;DHT22;10787;53.364;-1.480;2023-11-21T16:21:47;8.80;99.90
21259;DHT22;10787;53.364;-1.480;2023-11-21T16:24:32;8.80;99.90
21259;DHT22;10787;53.364;-1.480;2023-11-21T16:27:17;8.70;99.90
21259;DHT22;10787;53.364;-1.480;2023-11-21T16:30:04;8.70;99.90
21259;DHT22;10787;53.364;-1.480;2023-11-21T16:32:49;8.70;99.90
21259;DHT22;10787;53.364;-1.480;2023-11-21T16:35:33;8.70;99.90
21259;DHT22;10787;53.364;-1.480;2023-11-21T16:38:18;8.70;99.90
21259;DHT22;10787;53.364;-1.480;2023-11-21T16:41:02;8.70;99.90
21259;DHT22;10787;53.364;-1.480;2023-11-21T16:43:47;8.60;99.90
21259;DHT22;10787;53.364;-1.480;2023-11-21T16:46:32;8.60;99.90
21259;DHT22;10787;53.364;-1.480;2023-11-21T16:49:16;8.60;99.90
21259;DHT22;10787;53.364;-1.480;2023-11-21T16:52:02;8.60;99.90
21259;DHT22;10787;53.364;-1.480;2023-11-21T16:54:46;8.50;99.90
21259;DHT22;10787;53.364;-1.480;2023-11-21T16:57:31;8.50;99.90
21259;DHT22;10787;53.364;-1.480;2023-11-21T17:00:17;8.50;99.90
21259;DHT22;10787;53.364;-1.480;2023-11-21T17:03:03;8.40;99.90
21259;DHT22;10787;53.364;-1.480;2023-11-21T17:05:47;8.40;99.90
21259;DHT22;10787;53.364;-1.480;2023-11-21T17:08:32;8.30;99.90
21259;DHT22;10787;53.364;-1.480;2023-11-21T17:11:16;8.30;99.90
21259;DHT22;10787;53.364;-1.480;2023-11-21T17:14:00;8.30;99.90
21259;DHT22;10787;53.364;-1.480;2023-11-21T17:16:46;8.20;99.90
21259;DHT22;10787;53.364;-1.480;2023-11-21T17:19:32;8.10;99.90
21259;DHT22;10787;53.364;-1.480;2023-11-21T17:22:18;8.10;99.90
21259;DHT22;10787;53.364;-1.480;2023-11-21T17:25:03;8.10;99.90
21259;DHT22;10787;53.364;-1.480;2023-11-21T17:27:48;8.00;99.90
21259;DHT22;10787;53.364;-1.480;2023-11-21T17:30:32;8.00;99.90
21259;DHT22;10787;53.364;-1.480;2023-11-21T17:33:16;7.90;99.90
21259;DHT22;10787;53.364;-1.480;2023-11-21T17:36:00;7.90;99.90